createdAt,value
2024-01-10T00:00:19.206Z,0.00
2024-01-10T00:05:21.320Z,0.00
2024-01-10T00:10:20.291Z,0.00
2024-01-10T00:15:22.269Z,0.00
2024-01-10T00:20:21.301Z,0.00
2024-01-10T00:25:22.297Z,0.00
2024-01-10T00:30:23.311Z,0.00
2024-01-10T00:35:24.324Z,0.00
2024-01-10T00:40:25.345Z,0.00
2024-01-10T00:45:26.411Z,0.00
2024-01-10T00:50:27.395Z,0.00
2024-01-10T00:55:29.649Z,0.00
2024-01-10T01:00:29.056Z,0.00
2024-01-10T01:05:31.040Z,0.00
2024-01-10T01:10:30.999Z,0.00
2024-01-10T01:15:32.586Z,0.00
2024-01-10T01:20:32.089Z,0.00
2024-01-10T01:25:31.248Z,0.00
2024-01-10T01:30:32.254Z,0.00
2024-01-10T01:35:33.500Z,0.00
2024-01-10T01:40:34.871Z,0.00
2024-01-10T01:45:36.183Z,0.00
2024-01-10T01:50:37.501Z,0.00
2024-01-10T01:55:38.856Z,0.00
2024-01-10T02:00:40.884Z,0.00
2024-01-10T02:05:40.003Z,0.00
2024-01-10T02:10:41.130Z,0.00
2024-01-10T02:15:42.074Z,0.00
2024-01-10T02:20:43.204Z,0.00
2024-01-10T02:25:44.244Z,0.00
2024-01-10T02:30:46.250Z,0.00
2024-01-10T02:35:47.223Z,0.00
2024-01-10T02:40:46.222Z,0.00
2024-01-10T02:45:47.106Z,0.00
2024-01-10T02:50:48.059Z,0.00
2024-01-10T02:55:49.025Z,0.00
2024-01-10T03:00:50.040Z,0.00
2024-01-10T03:05:50.930Z,0.00
2024-01-10T03:10:50.933Z,0.00
2024-01-10T03:15:51.960Z,0.00
2024-01-10T03:20:53.004Z,0.00
2024-01-10T03:25:54.982Z,0.00
2024-01-10T03:30:53.964Z,0.00
2024-01-10T03:35:54.920Z,0.00
2024-01-10T03:40:55.887Z,0.00
2024-01-10T03:45:56.856Z,0.00
2024-01-10T03:50:57.741Z,0.00
2024-01-10T03:55:58.780Z,0.00
2024-01-10T04:00:59.833Z,0.00
2024-01-10T04:06:00.781Z,0.00
2024-01-10T04:11:01.804Z,0.00
2024-01-10T04:16:03.020Z,0.00
2024-01-10T04:21:05.038Z,0.00
2024-01-10T04:26:04.041Z,0.00
2024-01-10T04:31:04.125Z,0.00
2024-01-10T04:36:09.266Z,0.00
2024-01-10T04:41:06.248Z,0.00
2024-01-10T04:46:07.220Z,0.00
2024-01-10T04:51:08.144Z,0.00
2024-01-10T04:56:09.144Z,0.00
2024-01-10T05:01:10.134Z,0.00
2024-01-10T05:06:12.236Z,0.00
2024-01-10T05:11:12.308Z,0.00
2024-01-10T05:16:11.338Z,0.00
2024-01-10T05:21:12.320Z,0.00
2024-01-10T05:26:12.278Z,0.00
2024-01-10T05:31:13.287Z,0.00
2024-01-10T05:36:14.267Z,0.00
2024-01-10T05:41:15.292Z,0.00
2024-01-10T05:46:16.217Z,0.00
2024-01-10T05:51:17.205Z,0.00
2024-01-10T05:56:18.262Z,0.00
2024-01-10T06:01:19.229Z,0.00
2024-01-10T06:06:20.258Z,0.00
2024-01-10T06:11:22.275Z,0.00
2024-01-10T06:16:21.396Z,0.00
2024-01-10T06:21:22.348Z,0.00
2024-01-10T06:26:23.509Z,0.00
2024-01-10T06:31:24.863Z,0.00
2024-01-10T06:36:25.822Z,0.00
2024-01-10T06:41:26.852Z,0.00
2024-01-10T06:46:27.845Z,0.00
2024-01-10T06:51:28.789Z,0.00
2024-01-10T06:56:31.790Z,0.00
2024-01-10T07:01:30.722Z,5.62
2024-01-10T07:06:32.791Z,5.62
2024-01-10T07:11:31.947Z,11.25
2024-01-10T07:16:34.045Z,16.88
2024-01-10T07:21:34.007Z,22.50
2024-01-10T07:26:32.994Z,33.75
2024-01-10T07:31:33.940Z,39.38
2024-01-10T07:36:35.184Z,45.00
2024-01-10T07:41:36.235Z,56.25
2024-01-10T07:46:36.129Z,61.88
2024-01-10T07:51:37.078Z,73.12
2024-01-10T07:56:38.036Z,78.75
2024-01-10T08:01:38.047Z,95.62
2024-01-10T08:06:40.012Z,106.88
2024-01-10T08:11:37.982Z,112.50
2024-01-10T08:16:38.961Z,129.38
2024-01-10T08:21:39.886Z,140.62
2024-01-10T08:26:40.149Z,146.25
2024-01-10T08:31:41.221Z,157.50
2024-01-10T08:36:42.295Z,163.12
2024-01-10T08:41:43.333Z,168.75
2024-01-10T08:46:44.287Z,174.38
2024-01-10T08:51:45.414Z,174.38
2024-01-10T08:56:47.402Z,180.00
2024-01-10T09:01:46.408Z,191.25
2024-01-10T09:06:47.416Z,196.88
2024-01-10T09:11:49.377Z,208.12
2024-01-10T09:16:48.366Z,208.12
2024-01-10T09:21:49.688Z,213.75
2024-01-10T09:26:50.669Z,208.12
2024-01-10T09:31:51.678Z,208.12
2024-01-10T09:36:52.705Z,202.50
2024-01-10T09:41:53.749Z,225.00
2024-01-10T09:46:54.866Z,225.00
2024-01-10T09:51:55.838Z,247.50
2024-01-10T09:56:55.791Z,208.12
2024-01-10T10:01:56.819Z,185.62
2024-01-10T10:06:57.836Z,191.25
2024-01-10T10:11:58.839Z,225.00
2024-01-10T10:16:59.871Z,230.62
2024-01-10T10:22:01.810Z,236.25
2024-01-10T10:27:01.732Z,253.12
2024-01-10T10:32:00.731Z,230.62
2024-01-10T10:37:01.709Z,253.12
2024-01-10T10:42:02.702Z,253.12
2024-01-10T10:47:09.441Z,247.50
2024-01-10T10:52:04.454Z,241.88
2024-01-10T10:57:05.446Z,241.88
2024-01-10T11:02:06.422Z,264.38
2024-01-10T11:07:07.619Z,286.88
2024-01-10T11:12:09.611Z,292.50
2024-01-10T11:17:08.581Z,292.50
2024-01-10T11:22:09.572Z,320.62
2024-01-10T11:27:10.578Z,343.12
2024-01-10T11:32:11.622Z,326.25
2024-01-10T11:37:13.597Z,331.88
2024-01-10T11:42:11.530Z,320.62
2024-01-10T11:47:12.453Z,309.38
2024-01-10T11:52:13.321Z,270.00
2024-01-10T11:57:15.280Z,264.38
2024-01-10T12:02:13.648Z,241.88
2024-01-10T12:07:14.892Z,225.00
2024-01-10T12:12:14.052Z,247.50
2024-01-10T12:17:15.108Z,264.38
2024-01-10T12:22:18.224Z,236.25
2024-01-10T12:27:17.264Z,253.12
2024-01-10T12:32:18.214Z,253.12
2024-01-10T12:37:19.238Z,253.12
2024-01-10T12:42:20.303Z,264.38
2024-01-10T12:47:21.403Z,270.00
2024-01-10T12:52:24.229Z,275.62
2024-01-10T12:57:23.547Z,258.75
2024-01-10T13:02:25.635Z,253.12
2024-01-10T13:07:26.583Z,236.25
2024-01-10T13:12:25.561Z,202.50
2024-01-10T13:17:26.627Z,185.62
2024-01-10T13:22:27.598Z,180.00
2024-01-10T13:27:29.646Z,174.38
2024-01-10T13:32:29.620Z,163.12
2024-01-10T13:37:28.585Z,157.50
2024-01-10T13:42:30.582Z,157.50
2024-01-10T13:47:29.695Z,157.50
2024-01-10T13:52:28.999Z,157.50
2024-01-10T13:57:31.021Z,157.50
2024-01-10T14:02:30.722Z,151.88
2024-01-10T14:07:31.770Z,146.25
2024-01-10T14:12:32.873Z,140.62
2024-01-10T14:17:33.841Z,140.62
2024-01-10T14:22:35.788Z,135.00
2024-01-10T14:27:34.691Z,129.38
2024-01-10T14:32:38.052Z,123.75
2024-01-10T14:37:38.136Z,118.12
2024-01-10T14:42:38.074Z,106.88
2024-01-10T14:47:37.135Z,101.25
2024-01-10T14:52:38.044Z,95.62
2024-01-10T14:57:39.205Z,84.38
2024-01-10T15:02:41.295Z,73.12
2024-01-10T15:07:40.252Z,67.50
2024-01-10T15:12:41.179Z,50.62
2024-01-10T15:17:43.354Z,45.00
2024-01-10T15:22:42.382Z,39.38
2024-01-10T15:27:43.340Z,33.75
2024-01-10T15:32:44.418Z,28.12
2024-01-10T15:37:45.923Z,22.50
2024-01-10T15:42:46.846Z,16.88
2024-01-10T15:47:48.956Z,11.25
2024-01-10T15:52:47.950Z,5.62
2024-01-10T15:57:48.980Z,0.00
2024-01-10T16:02:50.985Z,0.00
2024-01-10T16:07:49.897Z,0.00
2024-01-10T16:12:50.839Z,0.00
2024-01-10T16:17:51.847Z,0.00
2024-01-10T16:22:52.860Z,0.00
2024-01-10T16:27:53.813Z,0.00
2024-01-10T16:32:54.794Z,0.00
2024-01-10T16:37:55.765Z,0.00
2024-01-10T16:42:56.748Z,0.00
2024-01-10T16:47:57.915Z,0.00
2024-01-10T16:52:58.984Z,0.00
2024-01-10T16:58:00.221Z,0.00
2024-01-10T17:03:01.137Z,0.00
2024-01-10T17:08:02.219Z,0.00
2024-01-10T17:13:03.178Z,0.00
2024-01-10T17:18:04.271Z,0.00
2024-01-10T17:23:05.284Z,0.00
2024-01-10T17:28:06.172Z,0.00
2024-01-10T17:33:07.181Z,0.00
2024-01-10T17:38:08.248Z,0.00
2024-01-10T17:43:09.286Z,0.00
2024-01-10T17:48:10.433Z,0.00
2024-01-10T17:53:11.383Z,0.00
2024-01-10T17:58:12.422Z,0.00
2024-01-10T18:03:14.461Z,0.00
2024-01-10T18:08:13.480Z,0.00
2024-01-10T18:13:16.530Z,0.00
2024-01-10T18:18:15.632Z,0.00
2024-01-10T18:23:16.680Z,0.00
2024-01-10T18:28:17.639Z,0.00
2024-01-10T18:33:18.722Z,0.00
2024-01-10T18:38:19.983Z,0.00
2024-01-10T18:43:21.090Z,0.00
2024-01-10T18:48:22.155Z,0.00
2024-01-10T18:53:23.159Z,0.00
2024-01-10T18:58:24.059Z,0.00
2024-01-10T19:03:25.099Z,0.00
2024-01-10T19:08:26.140Z,0.00
2024-01-10T19:13:28.121Z,0.00
2024-01-10T19:18:29.174Z,0.00
2024-01-10T19:23:28.282Z,0.00
2024-01-10T19:28:29.343Z,0.00
2024-01-10T19:33:30.486Z,0.00
2024-01-10T19:38:31.657Z,0.00
2024-01-10T19:43:33.000Z,0.00
2024-01-10T19:48:36.253Z,0.00
2024-01-10T19:53:33.702Z,0.00
2024-01-10T19:58:34.648Z,0.00
2024-01-10T20:03:35.672Z,0.00
2024-01-10T20:08:36.633Z,0.00
2024-01-10T20:13:37.653Z,0.00
2024-01-10T20:18:38.971Z,0.00
2024-01-10T20:23:39.088Z,0.00
2024-01-10T20:28:40.038Z,0.00
2024-01-10T20:33:41.204Z,0.00
2024-01-10T20:38:42.192Z,0.00
2024-01-10T20:43:43.244Z,0.00
2024-01-10T20:48:45.125Z,0.00
2024-01-10T20:53:44.111Z,0.00
2024-01-10T20:58:45.166Z,0.00
2024-01-10T21:03:46.135Z,0.00
2024-01-10T21:08:47.076Z,0.00
2024-01-10T21:13:47.114Z,0.00
2024-01-10T21:18:48.173Z,0.00
2024-01-10T21:23:49.143Z,0.00
2024-01-10T21:28:50.236Z,0.00
2024-01-10T21:33:51.282Z,0.00
2024-01-10T21:38:52.244Z,0.00
2024-01-10T21:43:53.328Z,0.00
2024-01-10T21:48:54.415Z,0.00
2024-01-10T21:53:55.478Z,0.00
2024-01-10T21:58:56.470Z,0.00
2024-01-10T22:03:57.559Z,0.00
2024-01-10T22:08:58.596Z,0.00
2024-01-10T22:13:59.677Z,0.00
2024-01-10T22:19:00.787Z,0.00
2024-01-10T22:24:01.825Z,0.00
2024-01-10T22:29:01.827Z,0.00
2024-01-10T22:34:02.764Z,0.00
2024-01-10T22:39:03.831Z,0.00
2024-01-10T22:44:05.829Z,0.00
2024-01-10T22:49:04.844Z,0.00
2024-01-10T22:54:05.852Z,0.00
2024-01-10T22:59:07.802Z,0.00
2024-01-10T23:04:06.808Z,0.00
2024-01-10T23:09:07.725Z,0.00
2024-01-10T23:14:08.783Z,0.00
2024-01-10T23:19:09.846Z,0.00
2024-01-10T23:24:10.793Z,0.00
2024-01-10T23:29:11.887Z,0.00
2024-01-10T23:34:14.692Z,0.00
2024-01-10T23:39:13.752Z,0.00
2024-01-10T23:44:14.767Z,0.00
2024-01-10T23:49:15.747Z,0.00
2024-01-10T23:54:16.667Z,0.00
2024-01-10T23:59:17.659Z,0.00
